Woodville, New York
Current Conditions -  °F | °C
As of 8:56 AM on Saturday 22 Nov 2014 (Local Time) from KART Reporting Station
Clear Clear  
Wind Chill: -8°   Ceiling: Unl
Heat Index: -2°   Visibility: 10mi
Dew Point: -13°   Wind: 16mph
Humidity: 43%   Direction: 200°SSW
Pressure: 30.21"   Gusts: 23mph
Location:  43.8534°N, 76.251°W
Report Text: KART 221356Z AUTO 20014G20KT 10SM CLR M02/M13 A3021 RMK AO2 SLP237 T10171128
Loading
Personal Weather Stations






























Interactive Weather Map New forecast layout! Learn more

10-Day Weather Forecast

Advertisements
Track Severe Weather on mobile